Time;durP1;ratioP1;P1;durP2;ratioP2;P2;SDS_P1;SDS_P2;PMS_P1;PMS_P2;Temp;Humidity;BMP_temperature;BMP_pressure;BME280_temperature;BME280_humidity;BME280_pressure;Samples;Min_cycle;Max_cycle;Signal;HPM_P1;HPM_P2
2023/02/19 00:01:40;;;;;;;13.43;9.48;;;;;;;9.84;100.00;101773.50;5090195;28;20052;-36
2023/02/19 00:04:26;;;;;;;16.27;9.73;;;;;;;9.90;100.00;101791.59;5090060;28;20028;-36
2023/02/19 00:06:51;;;;;;;11.35;8.15;;;;;;;9.87;100.00;101793.91;5089964;28;20032;-36
2023/02/19 00:09:18;;;;;;;13.35;8.80;;;;;;;9.77;100.00;101784.31;5090303;28;20426;-36
2023/02/19 00:11:45;;;;;;;13.70;8.70;;;;;;;9.82;100.00;101789.09;5090097;28;20035;-36
2023/02/19 00:14:13;;;;;;;;;;;;;;;9.87;100.00;101785.78;5078118;28;20036;-36
2023/02/19 00:16:39;;;;;;;17.38;9.32;;;;;;;9.83;100.00;101788.06;5076319;28;19958;-36
2023/02/19 00:19:07;;;;;;;10.80;7.45;;;;;;;9.82;100.00;101789.09;5076860;28;20036;-36
2023/02/19 00:21:33;;;;;;;12.00;8.00;;;;;;;9.80;100.00;101789.28;5076079;28;20424;-35
2023/02/19 00:24:01;;;;;;;11.80;6.80;;;;;;;9.81;100.00;101795.56;5075979;28;20071;-36
2023/02/19 00:26:27;;;;;;;14.23;7.13;;;;;;;9.73;100.00;101784.91;5076674;28;20128;-36
2023/02/19 00:28:54;;;;;;;13.55;7.00;;;;;;;9.81;100.00;101790.16;5076112;28;20036;-36
2023/02/19 00:31:22;;;;;;;13.63;6.65;;;;;;;9.80;100.00;101799.25;5076076;28;20032;-36
2023/02/19 00:33:49;;;;;;;13.50;6.72;;;;;;;9.78;100.00;101790.53;5075654;28;20033;-36
2023/02/19 00:36:16;;;;;;;10.98;6.13;;;;;;;9.78;100.00;101796.78;5075647;28;20036;-36
2023/02/19 00:38:43;;;;;;;12.35;5.95;;;;;;;9.78;100.00;101790.53;5075938;28;20024;-36
2023/02/19 00:41:18;;;;;;;14.20;6.40;;;;;;;9.79;100.00;101800.31;5075520;28;20036;-36
2023/02/19 00:44:13;;;;;;;14.23;6.15;;;;;;;9.79;100.00;101801.13;5075409;28;20107;-36
2023/02/19 00:46:44;;;;;;;15.02;6.25;;;;;;;9.78;100.00;101802.19;5070878;28;20439;-36
2023/02/19 00:49:18;;;;;;;15.93;6.07;;;;;;;9.72;100.00;101789.50;5075680;28;20032;-36
2023/02/19 00:51:45;;;;;;;16.38;6.63;;;;;;;9.77;100.00;101797.81;5076487;28;20427;-36
2023/02/19 00:54:11;;;;;;;13.88;5.97;;;;;;;9.73;100.00;101793.84;5075365;28;20033;-36
2023/02/19 00:56:37;;;;;;;15.00;6.10;;;;;;;9.76;100.00;101795.28;5075848;28;20391;-36
2023/02/19 00:59:02;;;;;;;12.30;6.83;;;;;;;9.75;100.00;101797.16;5075169;28;20032;-36
2023/02/19 01:01:28;;;;;;;15.55;6.95;;;;;;;9.73;100.00;101810.06;5075309;28;20044;-36
2023/02/19 01:03:53;;;;;;;12.43;6.27;;;;;;;9.75;100.00;101812.53;5075515;28;20111;-36
2023/02/19 01:06:20;;;;;;;15.87;6.33;;;;;;;9.70;100.00;101804.22;5075129;28;20104;-36
2023/02/19 01:08:46;;;;;;;9.13;5.40;;;;;;;9.75;100.00;101809.84;5075294;28;20032;-36
2023/02/19 01:11:12;;;;;;;13.20;5.93;;;;;;;9.74;100.00;101816.28;5075253;28;20109;-36
2023/02/19 01:13:37;;;;;;;;;;;;;;;9.77;100.00;101819.41;5075591;28;20032;-36
2023/02/19 01:16:23;;;;;;;12.95;5.72;;;;;;;9.75;100.00;101812.53;5075655;28;19915;-36
2023/02/19 01:18:49;;;;;;;14.45;5.82;;;;;;;9.72;100.00;101818.38;5075632;28;20032;-36
2023/02/19 01:21:17;;;;;;;12.85;5.47;;;;;;;9.71;100.00;101814.84;5074694;28;20024;-36
2023/02/19 01:23:43;;;;;;;12.25;5.80;;;;;;;9.64;100.00;101815.84;5074612;28;20484;-36
2023/02/19 01:26:12;;;;;;;12.85;5.45;;;;;;;9.68;100.00;101834.13;5074815;28;20073;-36
2023/02/19 01:28:38;;;;;;;14.48;5.20;;;;;;;9.68;100.00;101839.53;5075116;28;20020;-36
2023/02/19 01:31:05;;;;;;;15.37;6.07;;;;;;;9.68;100.00;101841.41;5074867;28;20491;-36
2023/02/19 01:33:32;;;;;;;16.58;5.10;;;;;;;9.68;100.00;101836.00;5075212;28;20032;-36
2023/02/19 01:35:58;;;;;;;11.77;5.20;;;;;;;9.68;100.00;101836.00;5074730;28;20020;-36
2023/02/19 01:38:23;;;;;;;14.20;5.03;;;;;;;9.54;100.00;101808.94;5074715;28;20020;-36
2023/02/19 01:41:02;;;;;;;14.35;5.90;;;;;;;9.67;100.00;101839.75;5074851;28;20043;-36
2023/02/19 01:43:28;;;;;;;13.18;5.13;;;;;;;9.65;100.00;101839.09;5074851;28;20035;-36
2023/02/19 01:45:53;;;;;;;14.88;5.25;;;;;;;9.64;100.00;101837.44;5074584;28;20361;-36
2023/02/19 01:48:30;;;;;;;15.20;6.43;;;;;;;9.56;100.00;101835.72;5074524;28;20029;-36
2023/02/19 01:51:06;;;;;;;13.07;4.45;;;;;;;9.59;100.00;101837.19;5074257;28;20029;-36
2023/02/19 01:53:35;;;;;;;16.80;5.78;;;;;;;9.61;100.00;101835.13;5075048;28;20035;-35
2023/02/19 01:56:02;;;;;;;13.25;5.20;;;;;;;9.51;100.00;101822.00;5075221;28;20043;-36
2023/02/19 01:58:29;;;;;;;;;;;;;;;9.62;100.00;101839.50;5075318;28;20380;-36
2023/02/19 02:00:55;;;;;;;13.30;5.13;;;;;;;9.43;100.00;101814.06;5074000;28;19912;-36
2023/02/19 02:03:21;;;;;;;14.65;4.85;;;;;;;9.54;100.00;101830.53;5075089;28;20028;-36
2023/02/19 02:06:00;;;;;;;12.45;4.68;;;;;;;9.38;100.00;101795.78;5074153;28;20544;-36
2023/02/19 02:11:11;;;;;;;16.52;5.00;;;;;;;9.52;100.00;101831.78;5074689;28;20047;-36
2023/02/19 02:13:39;;;;;;;19.83;5.43;;;;;;;9.49;100.00;101824.91;5073739;28;20025;-36
2023/02/19 02:16:22;;;;;;;12.90;5.63;;;;;;;9.50;100.00;101829.25;5073734;28;20036;-36
2023/02/19 02:18:53;;;;;;;17.20;5.45;;;;;;;9.50;100.00;101828.44;5073596;28;20032;-36
2023/02/19 02:21:43;;;;;;;13.05;4.80;;;;;;;9.48;100.00;101831.34;5074374;28;20046;-36
2023/02/19 02:24:33;;;;;;;16.90;5.13;;;;;;;9.49;100.00;101830.31;5074701;28;20067;-36
2023/02/19 02:27:22;;;;;;;14.38;4.60;;;;;;;9.47;100.00;101826.97;5074665;28;20020;-36
2023/02/19 02:30:04;;;;;;;11.95;4.80;;;;;;;9.45;100.00;101818.22;5074366;28;20039;-36
2023/02/19 02:32:34;;;;;;;14.35;4.53;;;;;;;9.43;100.00;101833.81;5074051;28;20029;-36
2023/02/19 02:35:08;;;;;;;14.20;4.30;;;;;;;9.45;100.00;101839.00;5074277;28;20032;-36
2023/02/19 02:37:37;;;;;;;20.08;5.57;;;;;;;9.37;100.00;101825.66;5074336;28;20029;-36
2023/02/19 02:40:06;;;;;;;15.13;4.70;;;;;;;9.42;100.00;101834.84;5073705;28;20365;-36
2023/02/19 02:42:32;;;;;;;13.55;5.00;;;;;;;9.42;100.00;101842.06;5073905;28;20094;-36
2023/02/19 02:45:33;;;;;;;12.75;4.20;;;;;;;9.42;100.00;101840.25;5074198;28;20082;-36
2023/02/19 02:48:06;;;;;;;13.07;4.40;;;;;;;9.39;100.00;101843.31;5074214;28;20024;-36
2023/02/19 02:50:37;;;;;;;16.17;4.80;;;;;;;9.39;100.00;101839.78;5073879;28;20044;-36
2023/02/19 02:55:55;;;;;;;11.63;4.40;;;;;;;9.29;100.00;101835.59;5074125;28;20066;-36
2023/02/19 02:58:23;;;;;;;;;;;;;;;9.40;100.00;101850.38;5073635;28;20461;-36
2023/02/19 03:03:42;;;;;;;16.77;4.75;;;;;;;9.31;100.00;101856.13;5074041;28;20098;-36
2023/02/19 03:06:12;;;;;;;11.77;4.00;;;;;;;9.27;100.00;101851.16;5074282;28;20389;-36
2023/02/19 03:08:55;;;;;;;11.30;4.57;;;;;;;9.28;100.00;101860.91;5073077;28;20039;-36
2023/02/19 03:19:51;;;;;;;9.90;3.72;;;;;;;9.20;100.00;101866.47;5073341;28;20048;-36
2023/02/19 03:22:22;;;;;;;14.40;3.85;;;;;;;9.21;100.00;101878.91;5073468;28;20021;-36
2023/02/19 03:27:46;;;;;;;11.93;3.80;;;;;;;9.17;100.00;101864.13;5073341;28;20443;-36
2023/02/19 03:30:18;;;;;;;10.52;3.30;;;;;;;9.16;100.00;101869.75;5072954;28;20040;-36
2023/02/19 03:32:54;;;;;;;13.60;3.72;;;;;;;9.15;100.00;101866.22;5073181;28;20524;-36
2023/02/19 03:35:23;;;;;;;15.07;3.67;;;;;;;9.12;100.00;101863.06;5073738;28;20160;-36
2023/02/19 03:37:56;;;;;;;15.00;3.58;;;;;;;9.08;100.00;101869.88;5073074;28;20107;-36
2023/02/19 03:40:26;;;;;;;12.57;3.90;;;;;;;9.15;100.00;101873.47;5073144;28;20035;-36
2023/02/19 03:43:15;;;;;;;15.50;3.80;;;;;;;9.15;100.00;101877.00;5073830;28;20032;-36
2023/02/19 03:46:08;;;;;;;17.27;4.47;;;;;;;9.18;100.00;101883.91;5073583;28;20028;-36
2023/02/19 03:48:44;;;;;;;10.10;3.03;;;;;;;9.17;100.00;101888.44;5074630;28;20025;-36
2023/02/19 03:51:38;;;;;;;13.68;4.10;;;;;;;9.17;100.00;101891.13;5077368;28;20032;-36
2023/02/19 03:54:19;;;;;;;11.10;3.33;;;;;;;9.17;100.00;101890.28;5073710;28;20101;-37
2023/02/19 03:56:57;;;;;;;13.70;3.47;;;;;;;9.10;100.00;101878.63;5076704;28;20032;-37
2023/02/19 03:59:27;;;;;;;13.40;3.72;;;;;;;9.15;100.00;101893.19;5076591;28;20036;-37
2023/02/19 04:02:04;;;;;;;12.60;3.80;;;;;;;9.10;100.00;101892.13;5077135;28;20048;-37
2023/02/19 04:04:36;;;;;;;13.45;2.97;;;;;;;9.10;100.00;101889.44;5077364;28;20337;-37
2023/02/19 04:07:02;;;;;;;13.43;3.15;;;;;;;9.21;100.00;101910.47;5076197;28;20029;-37
2023/02/19 04:09:35;;;;;;;9.43;2.60;;;;;;;9.21;100.00;101913.16;5077015;28;20028;-37
2023/02/19 04:12:02;;;;;;;12.43;3.40;;;;;;;9.19;100.00;101915.25;5076982;28;20060;-37
2023/02/19 04:14:52;;;;;;;12.05;3.25;;;;;;;9.21;100.00;101924.78;5076042;28;20543;-37
2023/02/19 04:17:36;;;;;;;12.13;2.70;;;;;;;9.19;100.00;101926.88;5075036;28;20371;-37
2023/02/19 04:20:06;;;;;;;11.55;3.80;;;;;;;9.20;100.00;101930.41;5075007;28;20020;-37
2023/02/19 04:22:33;;;;;;;11.80;2.95;;;;;;;9.15;100.00;101924.75;5076419;28;20349;-37
2023/02/19 04:24:59;;;;;;;11.60;3.50;;;;;;;9.10;100.00;101919.94;5075888;28;20469;-37
2023/02/19 04:27:25;;;;;;;12.57;3.50;;;;;;;9.14;100.00;101937.41;5076125;28;20033;-37
2023/02/19 04:29:51;;;;;;;10.70;3.25;;;;;;;9.16;100.00;101942.59;5076147;28;20040;-37
2023/02/19 04:32:16;;;;;;;11.07;3.07;;;;;;;9.16;100.00;101942.59;5076025;28;20447;-37
2023/02/19 04:34:41;;;;;;;9.93;3.33;;;;;;;9.08;100.00;101935.50;5076780;28;20262;-37
2023/02/19 04:37:07;;;;;;;12.07;2.90;;;;;;;9.16;100.00;101942.59;5075649;28;20553;-37
2023/02/19 04:39:32;;;;;;;9.10;3.13;;;;;;;9.12;100.00;101935.94;5076469;28;20464;-38
2023/02/19 04:41:58;;;;;;;10.13;3.05;;;;;;;9.15;100.00;101946.34;5075685;28;20029;-37
2023/02/19 04:44:23;;;;;;;12.60;2.90;;;;;;;9.15;100.00;101957.13;5076333;28;20029;-37
2023/02/19 04:46:48;;;;;;;6.40;2.20;;;;;;;9.14;100.00;101966.25;5075740;28;20719;-37
2023/02/19 04:49:14;;;;;;;11.40;3.40;;;;;;;9.14;100.00;101963.56;5076112;28;20032;-37
2023/02/19 04:51:39;;;;;;;9.33;2.73;;;;;;;9.14;100.00;101966.25;5075708;28;20032;-37
2023/02/19 04:54:05;;;;;;;10.67;3.20;;;;;;;9.06;100.00;101952.91;5075885;28;20067;-37
2023/02/19 04:56:30;;;;;;;14.35;4.00;;;;;;;9.12;100.00;101984.50;5075557;28;20266;-37
2023/02/19 04:58:56;;;;;;;8.97;2.90;;;;;;;9.06;100.00;101978.00;5074273;28;20071;-37
2023/02/19 05:01:23;;;;;;;9.18;3.28;;;;;;;9.08;100.00;101981.38;5075039;28;20040;-37
2023/02/19 05:03:49;;;;;;;10.05;3.30;;;;;;;9.11;100.00;102001.72;5075482;28;20119;-37
2023/02/19 05:06:14;;;;;;;10.87;2.90;;;;;;;9.10;100.00;102008.16;5076276;28;20187;-37
2023/02/19 05:08:40;;;;;;;11.63;2.97;;;;;;;9.08;100.00;102004.78;5076150;28;20719;-37
2023/02/19 05:11:09;;;;;;;9.65;2.55;;;;;;;8.99;100.00;101999.53;5075098;28;20031;-37
2023/02/19 05:13:35;;;;;;;13.90;3.38;;;;;;;9.06;100.00;102012.25;5075176;28;20062;-37
2023/02/19 05:16:03;;;;;;;11.13;2.97;;;;;;;9.05;100.00;102018.69;5075278;28;20036;-37
2023/02/19 05:18:29;;;;;;;12.73;3.28;;;;;;;9.02;100.00;102011.81;5075401;28;20028;-35
2023/02/19 05:20:56;;;;;;;13.95;2.97;;;;;;;8.94;100.00;101999.28;5075301;28;20130;-36
2023/02/19 05:23:22;;;;;;;10.57;2.88;;;;;;;8.92;100.00;102001.31;5074706;28;20492;-36
2023/02/19 05:25:47;;;;;;;13.07;2.67;;;;;;;8.98;100.00;102022.16;5075241;28;20078;-36
2023/02/19 05:28:18;;;;;;;9.63;2.77;;;;;;;8.95;100.00;102017.13;5075318;28;20031;-36
2023/02/19 05:30:51;;;;;;;7.50;2.35;;;;;;;8.91;100.00;102017.72;5074910;28;20039;-36
2023/02/19 05:33:18;;;;;;;10.63;3.55;;;;;;;8.90;100.00;102024.97;5074829;28;20067;-36
2023/02/19 05:35:49;;;;;;;10.30;3.33;;;;;;;8.89;100.00;102022.47;5075640;28;20028;-37
2023/02/19 05:38:16;;;;;;;11.77;3.40;;;;;;;8.82;100.00;102017.00;5074498;28;20035;-36
2023/02/19 05:40:42;;;;;;;10.43;2.72;;;;;;;8.85;100.00;102035.50;5075530;28;20425;-36
2023/02/19 05:43:08;;;;;;;10.18;3.05;;;;;;;8.85;100.00;102037.38;5074304;28;20396;-36
2023/02/19 05:45:34;;;;;;;10.05;3.40;;;;;;;8.83;100.00;102037.53;5074584;28;20028;-36
2023/02/19 05:47:59;;;;;;;16.13;3.67;;;;;;;8.84;100.00;102027.59;5074504;28;20108;-36
2023/02/19 05:50:25;;;;;;;10.45;2.97;;;;;;;8.81;100.00;102036.06;5074520;28;20124;-36
2023/02/19 05:52:51;;;;;;;9.80;3.40;;;;;;;8.78;100.00;102048.06;5074221;28;20064;-36
2023/02/19 05:55:16;;;;;;;11.60;3.27;;;;;;;8.76;100.00;102045.56;5075320;28;20524;-36
2023/02/19 05:57:44;;;;;;;11.48;3.88;;;;;;;8.74;100.00;102041.41;5074388;28;20346;-36
2023/02/19 06:00:11;;;;;;;14.23;3.90;;;;;;;8.71;100.00;102041.75;5075166;28;20467;-36
2023/02/19 06:02:37;;;;;;;8.98;3.05;;;;;;;8.65;100.00;102029.88;5074064;28;20443;-37
2023/02/19 06:05:02;;;;;;;10.07;3.13;;;;;;;8.67;100.00;102045.84;5074264;28;20033;-37
2023/02/19 06:07:29;;;;;;;10.23;3.10;;;;;;;8.67;100.00;102041.31;5074151;28;20050;-37
2023/02/19 06:09:54;;;;;;;10.43;3.08;;;;;;;8.66;100.00;102038.81;5074153;28;20063;-37
2023/02/19 06:12:20;;;;;;;9.67;3.50;;;;;;;8.57;100.00;102029.97;5073326;28;20068;-37
2023/02/19 06:14:45;;;;;;;10.73;4.07;;;;;;;8.61;100.00;102035.84;5073255;28;20031;-37
2023/02/19 06:17:10;;;;;;;10.33;3.13;;;;;;;8.60;100.00;102042.25;5073827;28;20020;-42
2023/02/19 06:19:36;;;;;;;12.63;3.20;;;;;;;8.60;100.00;102050.34;5074290;28;20059;-37
2023/02/19 06:22:01;;;;;;;12.73;3.97;;;;;;;8.58;100.00;102047.00;5073890;28;20432;-37
2023/02/19 06:24:27;;;;;;;10.90;3.13;;;;;;;8.60;100.00;102051.19;5074030;28;20025;-37
2023/02/19 06:26:52;;;;;;;10.27;3.10;;;;;;;8.61;100.00;102057.41;5073858;28;20639;-35
2023/02/19 06:29:17;;;;;;;13.00;3.47;;;;;;;8.60;100.00;102058.44;5073962;28;20032;-36
2023/02/19 06:31:43;;;;;;;14.03;3.00;;;;;;;8.60;100.00;102058.44;5073533;28;20099;-36
2023/02/19 06:34:09;;;;;;;9.50;2.88;;;;;;;8.59;100.00;102059.44;5073801;28;20526;-36
2023/02/19 06:36:34;;;;;;;10.45;3.22;;;;;;;8.59;100.00;102078.31;5074009;28;20035;-36
2023/02/19 06:39:00;;;;;;;11.83;3.93;;;;;;;8.51;100.00;102068.47;5074096;28;20066;-36
2023/02/19 06:41:25;;;;;;;13.13;4.20;;;;;;;8.59;100.00;102092.66;5073672;28;20028;-36
2023/02/19 06:43:53;;;;;;;11.17;3.73;;;;;;;8.59;100.00;102086.41;5074282;28;20449;-36
2023/02/19 06:46:19;;;;;;;10.25;3.72;;;;;;;8.57;100.00;102092.00;5074461;28;20020;-36
2023/02/19 06:48:44;;;;;;;13.07;4.07;;;;;;;8.55;100.00;102091.34;5073626;28;20396;-36
2023/02/19 06:51:15;;;;;;;15.30;3.77;;;;;;;8.57;100.00;102096.56;5074242;28;20032;-36
2023/02/19 06:53:40;;;;;;;15.27;4.45;;;;;;;8.49;100.00;102092.94;5073523;28;20111;-37
2023/02/19 06:56:21;;;;;;;8.73;2.97;;;;;;;8.60;100.00;102098.88;5074154;28;20107;-36
2023/02/19 06:58:46;;;;;;;11.82;3.63;;;;;;;8.51;100.00;102090.88;5073252;28;20271;-36
2023/02/19 07:01:12;;;;;;;11.90;3.67;;;;;;;8.55;100.00;102101.31;5073832;28;20132;-36
2023/02/19 07:03:37;;;;;;;15.17;3.93;;;;;;;8.50;100.00;102091.09;5073560;28;20611;-36
2023/02/19 07:06:03;;;;;;;14.70;3.83;;;;;;;8.55;100.00;102104.00;5073481;28;20129;-36
2023/02/19 07:08:28;;;;;;;10.75;3.95;;;;;;;8.50;100.00;102107.25;5073433;28;20109;-36
2023/02/19 07:10:55;;;;;;;13.02;4.68;;;;;;;8.48;100.00;102120.91;5073929;28;20044;-35
2023/02/19 07:13:21;;;;;;;12.95;4.03;;;;;;;8.46;100.00;102125.66;5073913;28;20028;-36
2023/02/19 07:15:46;;;;;;;14.50;4.80;;;;;;;8.45;100.00;102123.16;5073648;28;20063;-36
2023/02/19 07:18:12;;;;;;;13.13;4.43;;;;;;;8.45;100.00;102125.84;5073091;28;20029;-36
2023/02/19 07:20:39;;;;;;;10.33;4.37;;;;;;;8.44;100.00;102129.53;5073871;28;20024;-36
2023/02/19 07:23:04;;;;;;;9.38;3.92;;;;;;;8.41;100.00;102133.47;5073774;28;20028;-36
2023/02/19 07:25:30;;;;;;;12.70;3.93;;;;;;;8.41;100.00;102138.03;5077358;28;20102;-36
2023/02/19 07:27:55;;;;;;;14.43;5.10;;;;;;;8.42;100.00;102151.31;5077286;28;20029;-36
2023/02/19 07:30:21;;;;;;;11.13;4.55;;;;;;;8.41;100.00;102149.63;5078138;28;20024;-36
2023/02/19 07:32:46;;;;;;;14.67;5.43;;;;;;;8.32;100.00;102142.63;5077230;28;20032;-36
2023/02/19 07:35:11;;;;;;;11.10;5.13;;;;;;;8.34;100.00;102145.97;5077202;28;20063;-36
2023/02/19 07:37:37;;;;;;;8.73;4.57;;;;;;;8.35;100.00;102149.50;5077056;28;20024;-35
2023/02/19 07:40:02;;;;;;;14.10;6.05;;;;;;;8.20;100.00;102122.56;5076779;28;20059;-36
2023/02/19 07:42:29;;;;;;;9.00;5.13;;;;;;;8.42;100.00;102162.09;5076835;28;20025;-37
2023/02/19 07:44:54;;;;;;;10.55;5.32;;;;;;;8.30;100.00;102152.75;5076727;28;20579;-36
2023/02/19 07:47:20;;;;;;;12.10;5.60;;;;;;;8.43;100.00;102185.31;5076924;28;20115;-36
2023/02/19 07:49:45;;;;;;;9.47;5.50;;;;;;;8.44;100.00;102192.41;5075710;28;20017;-37
2023/02/19 07:52:10;;;;;;;13.00;6.20;;;;;;;8.42;100.00;102199.81;5077286;28;20120;-37
2023/02/19 07:54:36;;;;;;;13.37;6.33;;;;;;;8.42;100.00;102199.00;5077377;28;20025;-37
2023/02/19 07:57:01;;;;;;;14.97;7.50;;;;;;;8.34;100.00;102185.56;5076745;28;20027;-37
2023/02/19 07:59:26;;;;;;;8.53;6.20;;;;;;;8.41;100.00;102216.19;5077205;28;20024;-37
2023/02/19 08:04:36;;;;;;;13.65;7.45;;;;;;;8.44;100.00;102208.59;5076601;28;20119;-36
2023/02/19 08:07:01;;;;;;;11.88;7.10;;;;;;;8.37;100.00;102201.41;5076787;28;20107;-37
2023/02/19 08:09:26;;;;;;;14.83;6.80;;;;;;;8.44;100.00;102221.19;5077312;28;20083;-36
2023/02/19 08:14:35;;;;;;;11.10;6.65;;;;;;;8.42;100.00;102226.78;5076707;28;20070;-37
2023/02/19 08:17:02;;;;;;;11.93;6.83;;;;;;;8.40;100.00;102222.63;5076886;28;20395;-37
2023/02/19 08:19:27;;;;;;;10.70;6.72;;;;;;;8.46;100.00;102227.25;5076862;28;20017;-37
2023/02/19 08:21:52;;;;;;;12.60;6.93;;;;;;;8.50;100.00;102234.81;5075868;28;20032;-37
2023/02/19 08:24:18;;;;;;;11.80;6.80;;;;;;;8.55;100.00;102231.56;5076218;28;20078;-37
2023/02/19 08:26:46;;;;;;;13.23;6.40;;;;;;;8.57;100.00;102234.06;5075838;28;20169;-37
2023/02/19 08:29:11;;;;;;;10.65;6.20;;;;;;;8.59;100.00;102251.75;5076762;28;20424;-37
2023/02/19 08:31:40;;;;;;;14.23;8.00;;;;;;;8.63;100.00;102244.09;5076094;28;20036;-37
2023/02/19 08:34:05;;;;;;;13.40;7.40;;;;;;;8.55;100.00;102236.94;5075549;28;20457;-36
2023/02/19 08:36:31;;;;;;;13.53;7.23;;;;;;;8.62;100.00;102245.97;5076026;28;20111;-37
2023/02/19 08:38:56;;;;;;;10.37;6.53;;;;;;;8.63;100.00;102249.50;5076291;28;20021;-37
2023/02/19 08:41:21;;;;;;;13.68;6.70;;;;;;;8.63;100.00;102239.53;5076349;28;20036;-37
2023/02/19 08:43:47;;;;;;;11.70;6.60;;;;;;;8.64;100.00;102238.53;5075914;28;20032;-37
2023/02/19 08:46:12;;;;;;;9.77;6.07;;;;;;;8.57;100.00;102228.66;5075901;28;20255;-36
2023/02/19 08:48:39;;;;;;;11.05;6.40;;;;;;;8.73;100.00;102255.47;5075833;28;20028;-36
2023/02/19 08:51:07;;;;;;;9.80;5.63;;;;;;;8.69;100.00;102249.63;5076065;28;20024;-37
2023/02/19 08:53:34;;;;;;;12.13;6.30;;;;;;;8.69;100.00;102255.00;5075372;28;20103;-37
2023/02/19 08:56:07;;;;;;;9.73;6.88;;;;;;;8.71;100.00;102252.13;5075907;28;20369;-37
2023/02/19 08:58:34;;;;;;;11.15;6.18;;;;;;;8.75;100.00;102261.53;5076145;28;20025;-37
2023/02/19 09:01:00;;;;;;;11.27;5.85;;;;;;;8.77;100.00;102263.00;5075495;28;20021;-36
2023/02/19 09:03:25;;;;;;;10.53;5.77;;;;;;;8.79;100.00;102268.22;5076388;28;20112;-36
2023/02/19 09:05:51;;;;;;;11.07;5.57;;;;;;;8.78;100.00;102274.63;5075276;28;20251;-36
2023/02/19 09:08:16;;;;;;;9.25;5.07;;;;;;;8.80;100.00;102272.59;5075662;28;20324;-36
2023/02/19 09:10:42;;;;;;;7.90;5.10;;;;;;;8.80;100.00;102275.28;5075729;28;20067;-36
2023/02/19 09:13:07;;;;;;;7.75;4.20;;;;;;;8.79;100.00;102276.31;5075832;28;20056;-36
2023/02/19 09:15:33;;;;;;;6.43;4.18;;;;;;;8.86;100.00;102282.63;5075868;28;20033;-36
2023/02/19 09:17:59;;;;;;;7.73;3.90;;;;;;;8.87;100.00;102278.06;5075741;28;20115;-36
2023/02/19 09:20:24;;;;;;;7.72;4.13;;;;;;;8.80;100.00;102269.06;5075476;28;20086;-36
2023/02/19 09:22:56;;;;;;;6.67;3.87;;;;;;;8.87;100.00;102273.50;5074823;28;20021;-36
2023/02/19 09:25:21;;;;;;;9.40;4.47;;;;;;;8.80;100.00;102264.50;5075347;28;20350;-36
2023/02/19 09:27:46;;;;;;;9.23;4.23;;;;;;;8.84;100.00;102264.97;5074808;28;20056;-36
2023/02/19 09:30:12;;;;;;;8.43;4.57;;;;;;;8.90;100.00;102289.34;5075030;28;20046;-37
2023/02/19 09:32:37;;;;;;;12.67;6.40;;;;;;;8.89;100.00;102292.25;5074611;28;20028;-36
2023/02/19 09:35:03;;;;;;;12.70;5.50;;;;;;;8.89;100.00;102290.38;5075245;28;20255;-36
2023/02/19 09:37:28;;;;;;;10.07;5.57;;;;;;;8.90;100.00;102304.69;5074789;28;20115;-36
2023/02/19 09:39:54;;;;;;;9.60;5.60;;;;;;;8.87;100.00;102294.25;5075428;28;20070;-36
2023/02/19 09:42:24;;;;;;;9.77;5.60;;;;;;;8.75;100.00;102281.25;5074244;28;20028;-36
2023/02/19 09:44:53;;;;;;;11.52;5.47;;;;;;;8.77;100.00;102295.38;5075401;28;20024;-36
2023/02/19 09:47:33;;;;;;;10.70;6.85;;;;;;;8.77;100.00;102297.22;5073906;28;20063;-36
2023/02/19 09:50:07;;;;;;;10.15;5.72;;;;;;;8.76;100.00;102311.75;5075393;28;20111;-36
2023/02/19 09:52:36;;;;;;;10.75;5.50;;;;;;;8.68;100.00;102320.72;5074487;28;20024;-36
2023/02/19 09:55:28;;;;;;;7.70;5.10;;;;;;;8.81;100.00;102340.88;5074708;28;20036;-36
2023/02/19 09:57:54;;;;;;;8.90;4.82;;;;;;;8.85;100.00;102342.19;5074974;28;20045;-36
2023/02/19 10:00:21;;;;;;;;;;;;;;;8.94;100.00;102349.19;5074800;28;20111;-36
2023/02/19 10:02:50;;;;;;;8.65;4.15;;;;;;;8.87;100.00;102327.47;5074401;28;19923;-37
2023/02/19 10:05:15;;;;;;;8.55;4.20;;;;;;;9.01;100.00;102352.81;5074251;28;20055;-37
2023/02/19 10:07:47;;;;;;;6.47;3.75;;;;;;;9.02;100.00;102352.59;5074482;28;20036;-37
2023/02/19 10:10:13;;;;;;;5.95;4.22;;;;;;;9.08;100.00;102361.00;5074742;28;20108;-37
2023/02/19 10:13:01;;;;;;;10.10;4.87;;;;;;;9.10;100.00;102358.97;5074436;28;20421;-37
2023/02/19 10:15:57;;;;;;;5.93;3.47;;;;;;;9.13;100.00;102367.53;5073828;28;20060;-36
2023/02/19 10:18:28;;;;;;;6.72;3.63;;;;;;;9.16;100.00;102366.31;5069838;28;20489;-37
2023/02/19 10:20:55;;;;;;;8.02;2.97;;;;;;;9.19;100.00;102384.84;5074096;28;20051;-36
2023/02/19 10:23:21;;;;;;;7.60;3.85;;;;;;;9.26;100.00;102383.06;5073858;28;20085;-37
2023/02/19 10:25:56;;;;;;;7.32;2.95;;;;;;;9.32;100.00;102389.59;5073993;28;20107;-37
2023/02/19 10:28:26;;;;;;;6.13;2.55;;;;;;;9.36;100.00;102378.25;5074677;28;20062;-37
2023/02/19 10:30:55;;;;;;;7.65;2.88;;;;;;;9.36;100.00;102394.44;5074677;28;20025;-37
2023/02/19 10:33:21;;;;;;;8.75;2.70;;;;;;;9.41;100.00;102397.41;5073518;28;20028;-37
2023/02/19 10:35:51;;;;;;;7.35;3.10;;;;;;;9.45;100.00;102406.00;5074349;28;20029;-37
2023/02/19 10:38:19;;;;;;;5.70;2.55;;;;;;;9.50;100.00;102420.63;5073747;28;20036;-37
2023/02/19 10:40:45;;;;;;;7.82;2.70;;;;;;;9.53;100.00;102420.25;5074340;28;20036;-37
2023/02/19 10:43:30;;;;;;;7.72;3.67;;;;;;;9.54;100.00;102413.81;5073837;28;20032;-37
2023/02/19 10:45:56;;;;;;;8.38;3.25;;;;;;;9.58;100.00;102421.56;5073364;28;20469;-37
2023/02/19 10:48:48;;;;;;;6.50;3.05;;;;;;;9.64;100.00;102420.81;5073588;28;20157;-37
2023/02/19 10:51:19;;;;;;;6.00;3.13;;;;;;;9.60;100.00;102420.34;5073600;28;20500;-36
2023/02/19 10:53:47;;;;;;;6.53;3.20;;;;;;;9.53;100.00;102414.03;5073600;28;20032;-37
2023/02/19 10:56:25;;;;;;;7.57;3.38;;;;;;;9.59;100.00;102429.47;5072102;28;20039;-37
2023/02/19 10:58:51;;;;;;;8.20;3.15;;;;;;;9.47;100.00;102417.47;5073546;28;20475;-37
2023/02/19 11:01:25;;;;;;;6.65;3.10;;;;;;;9.55;100.00;102428.16;5074408;28;20036;-37
2023/02/19 11:04:12;;;;;;;6.88;3.15;;;;;;;9.44;100.00;102415.97;5073989;28;20461;-37
2023/02/19 11:06:38;;;;;;;8.25;3.30;;;;;;;9.49;100.00;102418.94;5073413;28;20028;-37
2023/02/19 11:09:04;;;;;;;6.10;3.05;;;;;;;9.52;100.00;102423.16;5073365;28;20467;-37
2023/02/19 11:11:36;;;;;;;6.40;2.97;;;;;;;9.63;100.00;102435.34;5073169;28;20025;-37
2023/02/19 11:14:14;;;;;;;5.90;3.08;;;;;;;9.72;100.00;102431.53;5073067;28;20040;-37
2023/02/19 11:17:02;;;;;;;6.68;3.58;;;;;;;9.78;100.00;102428.91;5073704;28;20104;-37
2023/02/19 11:19:28;;;;;;;5.53;2.80;;;;;;;9.85;100.00;102426.28;5073915;28;20025;-36
2023/02/19 11:21:54;;;;;;;5.53;2.87;;;;;;;9.93;100.00;102418.09;5073631;28;20043;-36
2023/02/19 11:24:28;;;;;;;5.28;2.42;;;;;;;9.96;100.00;102404.22;5073523;28;20487;-37
2023/02/19 11:26:54;;;;;;;6.03;2.42;;;;;;;9.99;100.00;102420.03;5073742;28;20020;-36
2023/02/19 11:29:22;;;;;;;;;;;;;;;10.03;100.00;102409.69;5074473;28;20025;-35
2023/02/19 11:31:48;;;;;;;5.35;2.78;;;;;;;9.89;100.00;102419.47;5073475;28;19908;-37
2023/02/19 11:34:13;;;;;;;4.50;2.55;;;;;;;9.90;100.00;102431.13;5073812;28;20028;-37
2023/02/19 11:36:40;;;;;;;4.10;2.80;;;;;;;9.88;100.00;102428.63;5072839;28;20115;-35
2023/02/19 11:39:14;;;;;;;7.07;3.08;;;;;;;9.88;100.00;102411.56;5073152;28;20094;-36
2023/02/19 11:41:59;;;;;;;6.60;2.83;;;;;;;9.97;100.00;102422.09;5074166;28;20028;-36
2023/02/19 11:44:38;;;;;;;3.55;2.40;;;;;;;9.96;100.00;102408.78;5073629;28;20030;-36
2023/02/19 11:47:35;;;;;;;8.27;3.30;;;;;;;9.96;100.00;102420.44;5073041;28;20028;-36
2023/02/19 11:50:31;;;;;;;4.85;2.50;;;;;;;9.91;100.00;102420.16;5072891;28;20078;-36
2023/02/19 11:53:16;;;;;;;5.53;2.90;;;;;;;9.80;100.00;102416.03;5072994;28;20039;-36
2023/02/19 11:56:11;;;;;;;6.30;2.75;;;;;;;9.83;100.00;102427.50;5073227;28;20472;-36
2023/02/19 11:59:00;;;;;;;4.13;2.95;;;;;;;9.81;100.00;102430.41;5073546;28;20029;-36